Time;durP1;ratioP1;P1;durP2;ratioP2;P2;SDS_P1;SDS_P2;PMS_P1;PMS_P2;Temp;Humidity;BMP_temperature;BMP_pressure;BME280_temperature;BME280_humidity;BME280_pressure;Samples;Min_cycle;Max_cycle;Signal;HPM_P1;HPM_P2
2022/10/13 00:01:08;;;;;;;32.30;16.00;;;12.40;99.90;;;;;;5026509;28;20220;-61
2022/10/13 00:03:34;;;;;;;28.83;16.27;;;12.40;99.90;;;;;;5024734;28;20333;-60
2022/10/13 00:05:59;;;;;;;29.67;15.33;;;12.30;99.90;;;;;;5026533;28;21016;-61
2022/10/13 00:08:25;;;;;;;30.07;15.57;;;12.30;99.90;;;;;;5027939;28;21850;-61
2022/10/13 00:10:51;;;;;;;34.43;14.90;;;12.30;99.90;;;;;;5010288;28;20250;-61
2022/10/13 00:13:17;;;;;;;34.23;15.77;;;12.30;99.90;;;;;;5024337;28;20187;-61
2022/10/13 00:15:45;;;;;;;32.43;14.67;;;12.40;99.90;;;;;;5021000;28;20183;-61
2022/10/13 00:18:11;;;;;;;29.97;15.67;;;12.40;99.90;;;;;;5020580;28;20467;-61
2022/10/13 00:20:48;;;;;;;25.27;14.90;;;12.30;99.90;;;;;;5023722;28;20437;-61
2022/10/13 00:23:14;;;;;;;34.47;14.90;;;12.40;99.90;;;;;;5024331;28;20486;-61
2022/10/13 00:25:44;;;;;;;27.80;14.13;;;12.40;99.90;;;;;;5028221;28;21081;-61
2022/10/13 00:28:10;;;;;;;31.30;15.40;;;12.40;99.90;;;;;;5025062;28;20961;-61
2022/10/13 00:30:37;;;;;;;34.90;16.57;;;12.40;99.90;;;;;;5022617;28;20484;-63
2022/10/13 00:33:03;;;;;;;28.63;15.33;;;12.40;99.90;;;;;;5028097;28;20442;-61
2022/10/13 00:35:29;;;;;;;32.73;15.10;;;12.40;99.90;;;;;;5027711;28;20949;-61
2022/10/13 00:37:55;;;;;;;32.57;14.43;;;12.40;99.90;;;;;;5025976;28;20505;-61
2022/10/13 00:40:20;;;;;;;45.30;15.77;;;12.40;99.90;;;;;;5026101;28;20203;-61
2022/10/13 00:42:46;;;;;;;29.33;15.47;;;12.30;99.90;;;;;;5026409;28;20573;-61
2022/10/13 00:45:21;;;;;;;31.77;15.10;;;12.30;99.90;;;;;;5027435;28;20561;-61
2022/10/13 00:47:52;;;;;;;32.83;15.07;;;12.30;99.90;;;;;;5023353;28;20199;-61
2022/10/13 00:50:22;;;;;;;33.17;15.60;;;12.30;99.90;;;;;;5029245;28;20472;-60
2022/10/13 00:52:50;;;;;;;29.57;15.93;;;12.30;99.90;;;;;;5028598;28;20980;-60
2022/10/13 00:55:20;;;;;;;34.03;15.20;;;12.20;99.90;;;;;;5024073;28;21936;-61
2022/10/13 00:57:53;;;;;;;35.00;15.73;;;12.20;99.90;;;;;;5026706;28;20462;-60
2022/10/13 01:00:20;;;;;;;38.60;15.40;;;12.20;99.90;;;;;;5027671;28;20569;-60
2022/10/13 01:02:46;;;;;;;31.93;15.00;;;12.20;99.90;;;;;;5023026;28;20485;-60
2022/10/13 01:05:12;;;;;;;27.93;15.53;;;12.20;99.90;;;;;;5027842;28;20816;-61
2022/10/13 01:07:37;;;;;;;36.00;16.23;;;12.20;99.90;;;;;;5026699;28;20211;-60
2022/10/13 01:10:04;;;;;;;39.10;16.17;;;12.10;99.90;;;;;;5024241;28;20176;-61
2022/10/13 01:13:25;;;;;;;26.33;14.37;;;12.20;99.90;;;;;;5025878;28;20199;-61
2022/10/13 01:16:05;;;;;;;32.20;14.90;;;12.20;99.90;;;;;;4907840;29;20440;-61
2022/10/13 01:18:43;;;;;;;29.97;15.07;;;12.20;99.90;;;;;;5008786;28;20494;-61
2022/10/13 01:21:24;;;;;;;43.20;16.63;;;12.10;99.90;;;;;;5012839;28;20434;-61
2022/10/13 01:23:58;;;;;;;28.73;16.63;;;12.10;99.90;;;;;;5027854;28;20537;-60
2022/10/13 01:26:36;;;;;;;24.23;13.17;;;12.10;99.90;;;;;;5022909;28;20429;-60
2022/10/13 01:29:39;;;;;;;32.73;15.33;;;12.00;99.90;;;;;;5023732;28;20450;-61
2022/10/13 01:32:24;;;;;;;23.60;14.07;;;12.00;99.90;;;;;;5022574;28;20430;-61
2022/10/13 01:34:53;;;;;;;29.07;13.60;;;12.00;99.90;;;;;;5004423;28;20447;-61
2022/10/13 01:37:53;;;;;;;25.60;12.73;;;12.00;99.90;;;;;;5023516;28;20438;-60
2022/10/13 01:40:37;;;;;;;32.73;14.47;;;11.90;99.90;;;;;;5004754;28;20580;-60
2022/10/13 01:43:37;;;;;;;28.83;13.10;;;11.90;99.90;;;;;;5025997;28;20465;-61
2022/10/13 01:46:15;;;;;;;28.93;12.60;;;11.90;99.90;;;;;;5020610;28;20443;-61
2022/10/13 01:48:44;;;;;;;31.93;13.57;;;11.90;99.90;;;;;;5023236;28;21794;-61
2022/10/13 01:51:15;;;;;;;28.50;13.47;;;11.90;99.90;;;;;;5024349;28;20426;-61
2022/10/13 01:53:42;;;;;;;26.47;14.00;;;11.90;99.90;;;;;;5027002;28;20917;-61
2022/10/13 01:56:08;;;;;;;26.50;13.73;;;11.90;99.90;;;;;;5021416;28;20442;-60
2022/10/13 01:58:36;;;;;;;33.43;15.43;;;11.90;99.90;;;;;;5026599;28;20485;-60
2022/10/13 02:01:17;;;;;;;34.37;15.50;;;11.90;99.90;;;;;;5022590;28;20257;-60
2022/10/13 02:04:19;;;;;;;29.77;12.63;;;11.90;99.90;;;;;;5018745;28;20473;-60
2022/10/13 02:07:06;;;;;;;33.23;14.53;;;11.90;99.90;;;;;;5024475;28;21025;-60
2022/10/13 02:09:32;;;;;;;30.53;14.60;;;11.90;99.90;;;;;;5021509;28;21050;-60
2022/10/13 02:12:06;;;;;;;27.50;15.40;;;11.90;99.90;;;;;;5024480;28;20426;-60
2022/10/13 02:14:36;;;;;;;32.10;14.00;;;11.90;99.90;;;;;;5021793;28;20188;-60
2022/10/13 02:17:04;;;;;;;32.40;14.40;;;11.90;99.90;;;;;;5025162;28;20446;-60
2022/10/13 02:19:34;;;;;;;26.83;13.90;;;11.90;99.90;;;;;;5019896;28;20540;-61
2022/10/13 02:22:00;;;;;;;30.47;14.67;;;11.90;99.90;;;;;;5024428;28;20457;-60
2022/10/13 02:24:25;;;;;;;27.40;14.30;;;11.90;99.90;;;;;;5024823;28;20556;-60
2022/10/13 02:26:52;;;;;;;32.53;14.83;;;11.90;99.90;;;;;;5017839;28;20420;-60
2022/10/13 02:29:17;;;;;;;33.60;15.60;;;11.90;99.90;;;;;;5019676;28;20685;-60
2022/10/13 02:31:44;;;;;;;29.07;14.80;;;11.90;99.90;;;;;;5024890;28;21009;-61
2022/10/13 02:34:11;;;;;;;30.20;15.43;;;11.90;99.90;;;;;;5023647;28;20286;-61
2022/10/13 02:36:37;;;;;;;33.97;15.60;;;11.90;99.90;;;;;;5035429;28;20465;-61
2022/10/13 02:39:04;;;;;;;41.13;14.80;;;11.90;99.90;;;;;;5028139;28;20835;-61
2022/10/13 02:41:30;;;;;;;33.50;14.40;;;11.90;99.90;;;;;;5021694;28;20485;-61
2022/10/13 02:43:55;;;;;;;24.73;13.60;;;11.90;99.90;;;;;;5029073;28;20555;-61
2022/10/13 02:46:21;;;;;;;30.40;14.20;;;11.90;99.90;;;;;;5025942;28;20175;-60
2022/10/13 02:48:47;;;;;;;24.13;13.37;;;11.90;99.90;;;;;;5029378;28;20701;-61
2022/10/13 02:51:12;;;;;;;30.50;14.37;;;11.90;99.90;;;;;;5031612;28;20172;-60
2022/10/13 02:53:38;;;;;;;27.47;13.10;;;11.90;99.90;;;;;;5028625;28;20207;-61
2022/10/13 02:56:04;;;;;;;32.80;14.37;;;11.90;99.90;;;;;;5025499;28;20606;-61
2022/10/13 02:58:30;;;;;;;33.37;14.80;;;11.90;99.90;;;;;;5027915;28;20207;-61
2022/10/13 03:01:12;;;;;;;26.20;14.47;;;11.90;99.90;;;;;;5022760;28;21001;-60
2022/10/13 03:03:38;;;;;;;37.40;14.37;;;11.90;99.90;;;;;;5028274;28;20273;-60
2022/10/13 03:06:05;;;;;;;37.13;14.50;;;11.90;99.90;;;;;;5027869;28;20976;-60
2022/10/13 03:08:32;;;;;;;23.93;14.10;;;11.90;99.90;;;;;;5028646;28;20480;-60
2022/10/13 03:10:58;;;;;;;27.10;14.90;;;11.90;99.90;;;;;;5029923;28;20521;-60
2022/10/13 03:13:24;;;;;;;24.90;13.50;;;11.90;99.90;;;;;;5024762;28;20434;-61
2022/10/13 03:15:49;;;;;;;24.77;12.97;;;12.00;99.90;;;;;;5028689;28;20183;-60
2022/10/13 03:18:15;;;;;;;29.10;12.90;;;12.00;99.90;;;;;;5027537;28;20694;-61
2022/10/13 03:20:41;;;;;;;33.30;13.97;;;12.00;99.90;;;;;;5026700;28;20211;-61
2022/10/13 03:23:06;;;;;;;22.03;13.10;;;12.00;99.90;;;;;;5024623;28;20632;-60
2022/10/13 03:25:33;;;;;;;27.33;13.13;;;12.00;99.90;;;;;;5026062;28;20180;-61
2022/10/13 03:27:58;;;;;;;26.60;13.13;;;12.00;99.90;;;;;;5022927;28;20291;-60
2022/10/13 03:30:25;;;;;;;22.83;11.57;;;12.00;99.90;;;;;;5026186;28;20521;-60
2022/10/13 03:32:51;;;;;;;19.77;12.40;;;12.00;99.90;;;;;;5028655;28;20254;-60
2022/10/13 03:35:16;;;;;;;23.57;12.60;;;12.00;99.90;;;;;;5029517;28;20435;-61
2022/10/13 03:37:42;;;;;;;27.80;13.43;;;12.00;99.90;;;;;;5031856;28;20199;-60
2022/10/13 03:40:09;;;;;;;27.23;13.23;;;12.00;99.90;;;;;;5030563;28;20194;-60
2022/10/13 03:42:35;;;;;;;31.53;12.87;;;12.00;99.90;;;;;;5027479;28;20642;-60
2022/10/13 03:45:05;;;;;;;26.27;13.33;;;12.10;99.90;;;;;;5030621;28;20414;-60
2022/10/13 03:47:31;;;;;;;25.00;13.13;;;12.10;99.90;;;;;;5017033;28;20431;-60
2022/10/13 03:49:57;;;;;;;22.50;12.53;;;12.10;99.90;;;;;;5030456;28;20427;-60
2022/10/13 03:52:22;;;;;;;24.40;12.20;;;12.10;99.90;;;;;;5023992;28;20438;-62
2022/10/13 03:54:48;;;;;;;24.43;12.20;;;12.10;99.90;;;;;;5022517;28;20180;-60
2022/10/13 03:57:14;;;;;;;29.63;12.83;;;12.00;99.90;;;;;;5024709;28;20268;-60
2022/10/13 03:59:40;;;;;;;28.70;13.03;;;12.10;99.90;;;;;;5022878;28;21020;-61
2022/10/13 04:02:06;;;;;;;24.33;12.20;;;12.10;99.90;;;;;;5018447;28;20188;-61
2022/10/13 04:04:32;;;;;;;22.00;11.13;;;12.00;99.90;;;;;;5025129;28;20266;-61
2022/10/13 04:06:58;;;;;;;25.23;12.13;;;12.10;99.90;;;;;;5029066;28;20781;-61
2022/10/13 04:09:23;;;;;;;26.13;12.90;;;12.10;99.90;;;;;;5023160;28;20500;-61
2022/10/13 04:11:50;;;;;;;30.87;14.00;;;12.00;99.90;;;;;;5018926;28;20184;-62
2022/10/13 04:14:16;;;;;;;31.33;13.63;;;12.00;99.90;;;;;;5026123;28;20219;-62
2022/10/13 04:16:41;;;;;;;21.00;11.80;;;12.00;99.90;;;;;;5021671;28;20478;-62
2022/10/13 04:19:10;;;;;;;25.07;12.40;;;12.00;99.90;;;;;;5022730;28;20628;-60
2022/10/13 04:21:35;;;;;;;21.73;12.10;;;12.00;99.90;;;;;;5021726;28;20180;-60
2022/10/13 04:24:02;;;;;;;23.17;11.93;;;12.00;99.90;;;;;;5023077;28;20549;-59
2022/10/13 04:26:30;;;;;;;25.03;11.70;;;12.00;99.90;;;;;;5024998;28;20172;-61
2022/10/13 04:28:56;;;;;;;22.13;12.20;;;12.00;99.90;;;;;;5005583;28;20512;-60
2022/10/13 04:31:23;;;;;;;27.13;12.80;;;12.00;99.90;;;;;;5002586;28;22513;-60
2022/10/13 04:33:49;;;;;;;20.73;11.60;;;12.00;99.90;;;;;;5026268;28;20192;-59
2022/10/13 04:36:16;;;;;;;28.10;11.27;;;12.00;99.90;;;;;;5016864;28;20496;-61
2022/10/13 04:38:43;;;;;;;26.87;12.13;;;11.90;99.90;;;;;;5022662;28;20450;-60
2022/10/13 04:41:12;;;;;;;22.33;12.27;;;11.90;99.90;;;;;;5018930;28;20441;-61
2022/10/13 04:43:38;;;;;;;21.53;10.83;;;11.90;99.90;;;;;;5022120;28;21018;-60
2022/10/13 04:46:06;;;;;;;22.43;11.43;;;11.90;99.90;;;;;;5019214;28;20538;-61
2022/10/13 04:48:32;;;;;;;20.50;12.70;;;11.90;99.90;;;;;;5004640;28;20284;-61
2022/10/13 04:51:10;;;;;;;22.60;11.37;;;11.90;99.90;;;;;;5025973;28;20867;-62
2022/10/13 04:53:36;;;;;;;16.60;10.40;;;11.90;99.90;;;;;;5026677;28;20445;-60
2022/10/13 04:56:11;;;;;;;20.33;11.07;;;11.90;99.90;;;;;;5025492;28;20430;-59
2022/10/13 04:58:38;;;;;;;21.03;12.80;;;11.90;99.90;;;;;;5011679;28;20452;-59
2022/10/13 05:01:05;;;;;;;17.97;11.43;;;11.90;99.90;;;;;;5026220;28;20446;-60
2022/10/13 05:03:32;;;;;;;28.80;11.33;;;11.90;99.90;;;;;;5028725;28;20454;-59
2022/10/13 05:05:58;;;;;;;20.10;10.63;;;11.90;99.90;;;;;;5026774;28;20427;-60
2022/10/13 05:08:24;;;;;;;24.47;10.73;;;11.90;99.90;;;;;;5027530;28;20458;-60
2022/10/13 05:10:57;;;;;;;17.70;11.07;;;11.90;99.90;;;;;;5024518;28;20796;-60
2022/10/13 05:13:24;;;;;;;28.90;12.20;;;11.90;99.90;;;;;;5028427;28;20496;-60
2022/10/13 05:15:49;;;;;;;23.70;11.47;;;11.90;99.90;;;;;;5023573;28;20441;-61
2022/10/13 05:18:15;;;;;;;25.80;12.03;;;11.90;99.90;;;;;;5029194;28;20462;-61
2022/10/13 05:20:41;;;;;;;19.50;11.50;;;11.90;99.90;;;;;;5028840;28;20180;-60
2022/10/13 05:23:08;;;;;;;24.60;11.90;;;11.90;99.90;;;;;;5027323;28;20293;-62
2022/10/13 05:25:34;;;;;;;25.20;12.20;;;11.90;99.90;;;;;;5025001;28;20451;-60
2022/10/13 05:28:00;;;;;;;25.90;12.37;;;11.90;99.90;;;;;;5028209;28;20685;-61
2022/10/13 05:30:26;;;;;;;28.77;13.17;;;11.90;99.90;;;;;;5029593;28;20453;-60
2022/10/13 05:32:51;;;;;;;69.30;25.27;;;11.90;99.90;;;;;;5030098;28;20175;-60
2022/10/13 05:35:17;;;;;;;44.57;19.47;;;11.90;99.90;;;;;;5023109;28;20187;-60
2022/10/13 05:37:42;;;;;;;39.57;16.30;;;11.90;99.90;;;;;;5016876;28;20678;-60
2022/10/13 05:40:08;;;;;;;35.00;16.73;;;11.90;99.90;;;;;;5027243;28;20186;-60
2022/10/13 05:42:35;;;;;;;36.00;16.90;;;11.90;99.90;;;;;;5027724;28;20183;-60
2022/10/13 05:45:01;;;;;;;35.83;15.23;;;12.00;99.90;;;;;;5026454;28;20813;-61
2022/10/13 05:47:27;;;;;;;32.13;14.43;;;12.00;99.90;;;;;;5026943;28;20433;-60
2022/10/13 05:49:54;;;;;;;34.50;14.70;;;12.00;99.90;;;;;;5029639;28;20785;-60
2022/10/13 05:52:22;;;;;;;35.93;13.90;;;12.00;99.90;;;;;;5026412;28;20176;-60
2022/10/13 05:54:55;;;;;;;26.10;14.13;;;12.00;99.90;;;;;;5018809;28;20496;-59
2022/10/13 05:57:42;;;;;;;35.97;15.20;;;11.90;99.90;;;;;;5003551;28;20500;-59
2022/10/13 06:00:12;;;;;;;32.33;14.00;;;12.00;99.90;;;;;;5021910;28;20521;-58
2022/10/13 06:02:52;;;;;;;29.03;13.70;;;11.90;99.90;;;;;;5024755;28;20445;-59
2022/10/13 06:05:20;;;;;;;30.93;14.53;;;12.00;99.90;;;;;;5021719;28;20438;-59
2022/10/13 06:07:47;;;;;;;33.00;13.43;;;12.00;99.90;;;;;;5021120;28;20858;-62
2022/10/13 06:10:13;;;;;;;28.20;14.40;;;12.00;99.90;;;;;;4999015;28;20505;-58
2022/10/13 06:12:39;;;;;;;25.27;14.60;;;12.00;99.90;;;;;;5003009;28;20517;-59
2022/10/13 06:15:05;;;;;;;34.40;15.27;;;12.00;99.90;;;;;;5031771;28;20521;-60
2022/10/13 06:17:30;;;;;;;29.83;14.43;;;12.00;99.90;;;;;;5028888;28;20666;-59
2022/10/13 06:19:56;;;;;;;29.87;14.20;;;12.00;99.90;;;;;;5032000;28;20443;-59
2022/10/13 06:22:21;;;;;;;28.37;13.50;;;12.00;99.90;;;;;;5025594;28;20183;-59
2022/10/13 06:24:47;;;;;;;26.10;14.50;;;12.00;99.90;;;;;;5026065;28;20210;-59
2022/10/13 06:27:13;;;;;;;33.30;15.00;;;12.00;99.90;;;;;;5028159;28;20707;-60
2022/10/13 06:29:39;;;;;;;31.63;15.47;;;12.00;99.90;;;;;;5028103;28;20602;-59
2022/10/13 06:32:05;;;;;;;30.33;15.80;;;12.00;99.90;;;;;;5026727;28;20253;-59
2022/10/13 06:34:32;;;;;;;32.83;15.90;;;12.00;99.90;;;;;;5026573;28;20184;-60
2022/10/13 06:36:57;;;;;;;39.03;14.63;;;12.00;99.90;;;;;;5024755;28;20520;-63
2022/10/13 06:39:23;;;;;;;28.20;15.10;;;12.10;99.90;;;;;;5018872;28;20984;-60
2022/10/13 06:41:49;;;;;;;35.97;16.10;;;12.10;99.90;;;;;;5021851;28;20184;-61
2022/10/13 06:44:15;;;;;;;26.93;15.00;;;12.10;99.90;;;;;;5033570;28;20222;-60
2022/10/13 06:46:40;;;;;;;23.50;12.10;;;12.10;99.90;;;;;;5029011;28;20430;-60
2022/10/13 06:49:09;;;;;;;28.70;13.17;;;12.10;99.90;;;;;;5025994;28;20624;-59
2022/10/13 06:51:34;;;;;;;24.67;13.13;;;12.10;99.90;;;;;;5023310;28;20639;-60
2022/10/13 06:54:00;;;;;;;23.20;12.40;;;12.10;99.90;;;;;;5020017;28;20446;-60
2022/10/13 06:56:25;;;;;;;30.80;14.40;;;12.20;99.90;;;;;;5021712;28;20229;-60
2022/10/13 06:58:51;;;;;;;29.63;13.13;;;12.30;99.90;;;;;;5026729;28;20208;-60
2022/10/13 07:01:17;;;;;;;27.40;13.97;;;12.30;99.90;;;;;;5030892;28;20604;-60
2022/10/13 07:03:42;;;;;;;31.40;13.17;;;12.30;99.90;;;;;;5024447;28;20208;-60
2022/10/13 07:06:08;;;;;;;18.97;12.83;;;12.40;99.90;;;;;;5030757;28;20261;-60
2022/10/13 07:08:34;;;;;;;39.87;15.50;;;12.40;99.90;;;;;;5029139;28;20204;-60
2022/10/13 07:11:06;;;;;;;27.70;14.00;;;12.40;99.90;;;;;;5020474;28;20183;-60
2022/10/13 07:13:31;;;;;;;34.93;13.70;;;12.40;99.90;;;;;;5032057;28;20183;-60
2022/10/13 07:15:57;;;;;;;30.43;14.57;;;12.40;99.90;;;;;;5012979;28;20848;-60
2022/10/13 07:18:23;;;;;;;37.73;14.63;;;12.50;99.90;;;;;;5031267;28;20219;-60
2022/10/13 07:20:48;;;;;;;29.40;15.40;;;12.50;99.90;;;;;;5031351;28;20693;-60
2022/10/13 07:23:14;;;;;;;29.00;15.03;;;12.60;99.90;;;;;;5029053;28;20740;-59
2022/10/13 07:25:39;;;;;;;29.37;14.90;;;12.60;99.90;;;;;;5028519;28;20183;-60
2022/10/13 07:28:05;;;;;;;29.50;15.80;;;12.70;99.90;;;;;;5020798;28;20196;-60
2022/10/13 07:30:30;;;;;;;34.00;17.03;;;12.70;99.90;;;;;;5011478;28;20186;-60
2022/10/13 07:32:56;;;;;;;37.57;15.77;;;12.80;99.90;;;;;;5021263;28;20185;-61
2022/10/13 07:35:24;;;;;;;32.73;16.23;;;12.80;99.90;;;;;;5019987;28;20191;-60
2022/10/13 07:37:52;;;;;;;28.37;15.60;;;12.90;99.90;;;;;;5031183;28;20204;-61
2022/10/13 07:40:18;;;;;;;38.10;19.83;;;13.00;99.90;;;;;;5029192;28;20530;-61
2022/10/13 07:42:43;;;;;;;37.33;18.33;;;13.00;99.90;;;;;;5027945;28;20513;-60
2022/10/13 07:45:09;;;;;;;40.97;19.50;;;13.10;99.90;;;;;;5030445;28;20207;-60
2022/10/13 07:47:35;;;;;;;36.53;17.83;;;13.20;99.90;;;;;;5028589;28;20213;-60
2022/10/13 07:50:00;;;;;;;34.07;18.80;;;13.20;99.90;;;;;;5027711;28;20662;-60
2022/10/13 07:52:26;;;;;;;33.77;18.30;;;13.20;99.90;;;;;;5028796;28;20202;-60
2022/10/13 07:54:52;;;;;;;35.20;18.27;;;13.30;99.90;;;;;;5023647;28;20180;-60
2022/10/13 07:57:18;;;;;;;39.47;19.23;;;13.30;99.90;;;;;;5021760;28;20536;-60
2022/10/13 07:59:44;;;;;;;40.30;19.10;;;13.30;99.90;;;;;;5026024;28;20473;-60
2022/10/13 08:02:10;;;;;;;37.37;18.27;;;13.30;99.90;;;;;;5026568;28;20968;-61
2022/10/13 08:04:36;;;;;;;33.97;18.43;;;13.30;99.90;;;;;;5029990;28;20273;-60
2022/10/13 08:07:03;;;;;;;34.87;18.30;;;13.30;99.90;;;;;;5026114;28;20192;-60
2022/10/13 08:09:28;;;;;;;42.43;18.40;;;13.30;99.90;;;;;;5028513;28;20279;-61
2022/10/13 08:11:54;;;;;;;37.60;17.90;;;13.30;99.90;;;;;;5029222;28;20438;-60
2022/10/13 08:14:20;;;;;;;30.33;16.73;;;13.20;99.90;;;;;;5024752;28;20180;-59
2022/10/13 08:16:46;;;;;;;27.07;15.77;;;13.20;99.90;;;;;;5029062;28;20179;-59
2022/10/13 08:19:13;;;;;;;35.00;16.47;;;13.30;99.90;;;;;;5030868;28;20295;-60
2022/10/13 08:21:38;;;;;;;28.73;16.10;;;13.30;99.90;;;;;;5028081;28;20438;-59
2022/10/13 08:24:12;;;;;;;26.80;16.27;;;13.30;99.90;;;;;;5022933;28;20466;-60
2022/10/13 08:26:38;;;;;;;28.70;15.80;;;13.30;99.90;;;;;;5020492;28;20188;-60
2022/10/13 08:29:04;;;;;;;27.27;13.67;;;13.30;99.90;;;;;;5021304;28;20516;-60
2022/10/13 08:31:30;;;;;;;27.60;16.30;;;13.40;99.90;;;;;;5015542;28;20319;-60
2022/10/13 08:33:55;;;;;;;29.57;15.80;;;13.40;99.90;;;;;;5025295;28;20266;-60
2022/10/13 08:36:21;;;;;;;32.57;16.77;;;13.40;99.90;;;;;;5020750;28;20191;-58
2022/10/13 08:38:46;;;;;;;27.93;15.43;;;13.40;99.90;;;;;;5011604;28;20280;-60
2022/10/13 08:41:16;;;;;;;29.57;14.50;;;13.40;99.90;;;;;;5017251;28;20193;-59
2022/10/13 08:43:49;;;;;;;26.03;14.37;;;13.50;99.90;;;;;;5027962;28;20279;-60
2022/10/13 08:46:23;;;;;;;28.10;16.20;;;13.50;99.90;;;;;;5015412;28;20524;-60
2022/10/13 08:48:49;;;;;;;37.87;14.80;;;13.50;99.90;;;;;;5018218;28;20450;-60
2022/10/13 08:51:16;;;;;;;38.23;14.37;;;13.50;99.90;;;;;;5021492;28;20457;-59
2022/10/13 08:53:43;;;;;;;34.50;16.90;;;13.50;99.90;;;;;;5011709;28;20187;-59
2022/10/13 08:56:21;;;;;;;25.77;13.90;;;13.60;99.90;;;;;;5019171;28;20793;-60
2022/10/13 08:58:49;;;;;;;28.57;14.93;;;13.70;99.90;;;;;;4997039;28;20462;-60
2022/10/13 09:01:23;;;;;;;30.10;14.20;;;13.70;99.90;;;;;;5018406;28;20439;-61
2022/10/13 09:03:49;;;;;;;31.73;14.20;;;13.80;99.90;;;;;;5019386;28;20460;-60
2022/10/13 09:06:27;;;;;;;26.83;14.33;;;13.90;99.90;;;;;;5017244;28;20438;-61
2022/10/13 09:08:58;;;;;;;24.50;13.70;;;13.90;99.90;;;;;;5019357;28;20203;-60
2022/10/13 09:11:33;;;;;;;24.27;13.37;;;14.00;99.90;;;;;;5018979;28;20432;-61
2022/10/13 09:14:06;;;;;;;23.20;13.90;;;14.00;99.90;;;;;;5016450;28;20429;-60
2022/10/13 09:16:36;;;;;;;29.27;15.60;;;14.10;99.90;;;;;;5023463;28;20454;-61
2022/10/13 09:19:39;;;;;;;27.30;14.10;;;14.10;99.90;;;;;;5019376;28;20567;-61
2022/10/13 09:22:23;;;;;;;28.83;13.93;;;14.10;99.90;;;;;;5005462;28;20454;-60
2022/10/13 09:25:09;;;;;;;24.60;14.20;;;14.10;99.90;;;;;;5024756;28;20469;-60
2022/10/13 09:27:46;;;;;;;22.77;12.93;;;14.10;99.90;;;;;;5022621;28;20430;-60
2022/10/13 09:30:40;;;;;;;25.23;12.80;;;14.10;99.90;;;;;;5022932;28;20426;-62
2022/10/13 09:33:10;;;;;;;29.57;12.77;;;14.20;99.90;;;;;;5015246;28;20451;-60
2022/10/13 09:35:37;;;;;;;23.80;11.83;;;14.20;99.90;;;;;;5005382;28;20434;-60
2022/10/13 09:38:03;;;;;;;19.93;13.07;;;14.20;99.90;;;;;;5010794;28;20466;-60
2022/10/13 09:40:30;;;;;;;30.07;12.50;;;14.30;99.90;;;;;;5027380;28;20439;-59
2022/10/13 09:42:57;;;;;;;31.90;13.83;;;14.30;99.90;;;;;;5019518;28;20211;-57
2022/10/13 09:45:25;;;;;;;30.03;15.50;;;14.30;99.90;;;;;;5016276;28;20457;-57
2022/10/13 09:48:06;;;;;;;23.00;13.60;;;14.30;99.90;;;;;;5017443;28;21016;-60
2022/10/13 09:50:34;;;;;;;29.27;13.40;;;14.30;99.90;;;;;;5021221;28;22253;-60
2022/10/13 09:53:17;;;;;;;31.50;14.10;;;14.40;99.90;;;;;;5012447;28;20442;-61
2022/10/13 09:55:47;;;;;;;27.87;14.10;;;14.40;99.90;;;;;;5024605;28;20812;-59
2022/10/13 09:58:26;;;;;;;31.57;15.50;;;14.40;99.90;;;;;;5024118;28;20516;-60
2022/10/13 10:00:53;;;;;;;25.67;14.00;;;14.40;99.90;;;;;;5021229;28;20441;-60
2022/10/13 10:03:26;;;;;;;30.40;14.47;;;14.40;99.90;;;;;;5027624;28;20462;-60
2022/10/13 10:05:56;;;;;;;29.43;15.00;;;14.40;99.90;;;;;;5019198;28;20666;-59
2022/10/13 10:08:46;;;;;;;27.40;15.00;;;14.40;99.90;;;;;;5028279;28;20488;-66
2022/10/13 10:11:17;;;;;;;30.17;15.47;;;14.40;99.90;;;;;;5023871;28;20436;-59
2022/10/13 10:13:42;;;;;;;28.93;15.97;;;14.40;99.90;;;;;;5020895;28;20436;-63
2022/10/13 10:16:08;;;;;;;24.43;14.33;;;14.40;99.90;;;;;;5023213;28;20438;-65
2022/10/13 10:18:39;;;;;;;24.70;13.40;;;14.40;99.90;;;;;;5015686;28;20277;-63
2022/10/13 10:21:17;;;;;;;29.43;14.90;;;14.40;99.90;;;;;;5011338;28;20207;-61
2022/10/13 10:23:51;;;;;;;25.90;14.17;;;14.40;99.90;;;;;;5012589;28;20588;-64
2022/10/13 10:26:42;;;;;;;28.70;14.80;;;14.40;99.90;;;;;;5026287;28;20457;-62
2022/10/13 10:29:22;;;;;;;26.03;13.37;;;14.40;99.90;;;;;;5025144;28;20457;-61
2022/10/13 10:32:03;;;;;;;33.20;14.97;;;14.40;99.90;;;;;;5022443;28;20441;-60
2022/10/13 10:34:31;;;;;;;30.87;16.00;;;14.40;99.90;;;;;;5036084;28;20417;-60
2022/10/13 10:37:15;;;;;;;24.50;14.50;;;14.40;99.90;;;;;;5026957;28;20446;-61
2022/10/13 10:39:51;;;;;;;25.83;15.50;;;14.40;99.90;;;;;;5023938;28;21036;-60
2022/10/13 10:42:46;;;;;;;27.40;14.37;;;14.40;99.90;;;;;;5016192;28;20461;-62
2022/10/13 10:45:35;;;;;;;28.90;16.03;;;14.50;99.90;;;;;;5010639;28;20450;-62
2022/10/13 10:48:11;;;;;;;27.17;14.53;;;14.50;99.90;;;;;;5021927;28;20827;-63
2022/10/13 10:50:36;;;;;;;28.70;15.40;;;14.50;99.90;;;;;;5015420;28;20445;-60
2022/10/13 10:53:22;;;;;;;32.70;15.80;;;14.50;99.90;;;;;;5019465;28;20427;-61
2022/10/13 10:56:45;;;;;;;29.63;15.60;;;14.50;99.90;;;;;;5022488;28;20528;-61
2022/10/13 10:59:29;;;;;;;25.93;14.10;;;14.50;99.90;;;;;;4944405;28;20992;-61
2022/10/13 11:02:06;;;;;;;30.97;15.60;;;14.60;99.90;;;;;;5021007;28;20430;-60
2022/10/13 11:04:39;;;;;;;30.67;14.37;;;14.60;99.90;;;;;;5016423;28;20540;-60
2022/10/13 11:07:10;;;;;;;33.63;15.47;;;14.70;99.90;;;;;;5023122;28;20438;-60
2022/10/13 11:09:42;;;;;;;27.83;14.07;;;14.70;99.90;;;;;;5029222;28;20462;-61
2022/10/13 11:12:20;;;;;;;29.13;14.43;;;14.80;99.90;;;;;;5016847;28;20458;-60
2022/10/13 11:15:10;;;;;;;28.70;14.80;;;14.90;99.90;;;;;;5024672;28;20450;-60
2022/10/13 11:17:37;;;;;;;31.27;14.60;;;15.00;99.90;;;;;;5021733;28;20443;-66
2022/10/13 11:20:49;;;;;;;26.90;15.37;;;15.00;99.90;;;;;;5028451;28;20427;-62
2022/10/13 11:23:17;;;;;;;29.17;15.50;;;15.10;99.90;;;;;;5024279;28;21011;-68
2022/10/13 11:25:45;;;;;;;31.27;16.10;;;15.20;99.90;;;;;;5024547;28;20418;-63
2022/10/13 11:28:20;;;;;;;30.73;15.10;;;15.30;99.90;;;;;;5030445;28;20454;-65
2022/10/13 11:31:08;;;;;;;29.77;15.00;;;15.40;99.90;;;;;;5019945;28;20470;-62
2022/10/13 11:33:34;;;;;;;28.03;15.67;;;15.50;99.90;;;;;;5017671;28;20853;-61
2022/10/13 11:36:28;;;;;;;30.07;15.40;;;15.50;97.50;;;;;;5026052;28;20544;-62
2022/10/13 11:39:00;;;;;;;28.90;14.93;;;15.40;98.60;;;;;;5027367;28;20204;-62
2022/10/13 11:41:32;;;;;;;23.90;14.20;;;15.40;99.60;;;;;;5024707;28;20458;-63
2022/10/13 11:44:18;;;;;;;28.27;14.20;;;15.30;99.60;;;;;;5026825;28;20498;-63
2022/10/13 11:47:34;;;;;;;24.10;13.63;;;15.20;99.00;;;;;;5011204;28;20522;-61
2022/10/13 11:50:18;;;;;;;41.53;15.23;;;15.20;99.90;;;;;;5021995;28;20429;-63
2022/10/13 11:53:06;;;;;;;27.43;13.87;;;15.30;99.90;;;;;;5011267;28;20430;-57
2022/10/13 11:55:56;;;;;;;25.37;12.70;;;15.60;99.90;;;;;;5015801;28;20435;-63
2022/10/13 11:58:24;;;;;;;22.80;12.90;;;15.80;98.40;;;;;;5026791;28;20451;-67
2022/10/13 12:00:56;;;;;;;18.00;11.10;;;16.00;97.00;;;;;;5009090;28;20435;-65
2022/10/13 12:03:31;;;;;;;20.57;11.83;;;16.30;96.40;;;;;;4995874;28;20466;-64
2022/10/13 12:06:02;;;;;;;20.63;12.20;;;16.70;89.10;;;;;;5015713;28;20448;-63
2022/10/13 12:08:29;;;;;;;17.83;11.07;;;17.10;80.80;;;;;;5023190;28;20860;-61
2022/10/13 12:10:57;;;;;;;21.30;11.47;;;17.30;78.30;;;;;;5027120;28;20434;-61
2022/10/13 12:13:29;;;;;;;16.47;10.47;;;17.40;76.20;;;;;;5014810;28;20442;-61
2022/10/13 12:16:05;;;;;;;32.60;13.10;;;17.20;72.50;;;;;;5025559;28;20444;-61
2022/10/13 12:18:37;;;;;;;20.53;10.40;;;17.00;72.50;;;;;;5000784;28;20484;-62
2022/10/13 12:21:21;;;;;;;24.53;11.20;;;16.80;75.40;;;;;;5022067;28;20442;-61
2022/10/13 12:23:49;;;;;;;16.77;9.97;;;16.90;78.80;;;;;;5015519;28;20867;-62
2022/10/13 12:26:17;;;;;;;20.63;10.30;;;16.90;77.10;;;;;;5011603;28;20412;-61
2022/10/13 12:29:02;;;;;;;17.20;9.63;;;16.80;75.70;;;;;;5020114;28;20446;-61
2022/10/13 12:31:39;;;;;;;19.50;10.70;;;16.80;77.30;;;;;;5024487;28;20407;-61
2022/10/13 12:34:26;;;;;;;15.13;9.27;;;16.80;77.20;;;;;;5020345;28;20438;-60
2022/10/13 12:37:04;;;;;;;18.53;10.60;;;16.90;77.70;;;;;;5016138;28;21483;-63
2022/10/13 12:39:31;;;;;;;19.07;10.10;;;16.90;76.20;;;;;;5016628;28;20919;-61
2022/10/13 12:41:58;;;;;;;16.53;8.53;;;16.90;76.20;;;;;;5018111;28;20499;-62
2022/10/13 12:44:26;;;;;;;19.03;10.13;;;16.90;77.50;;;;;;5015544;28;20841;-60
2022/10/13 12:46:57;;;;;;;18.10;9.97;;;16.90;79.80;;;;;;5024382;28;20470;-61